createdAt,value
2023-05-21T00:00:16.008Z,35.16
2023-05-21T00:01:15.965Z,35.08
2023-05-21T00:02:16.011Z,35.14
2023-05-21T00:03:16.112Z,35.09
2023-05-21T00:04:16.016Z,35.13
2023-05-21T00:05:16.024Z,35.11
2023-05-21T00:06:16.159Z,35.13
2023-05-21T00:07:16.034Z,35.15
2023-05-21T00:08:16.046Z,35.16
2023-05-21T00:09:16.096Z,35.11
2023-05-21T00:10:16.121Z,35.06
2023-05-21T00:11:16.119Z,35.02
2023-05-21T00:12:16.146Z,35.05
2023-05-21T00:13:16.138Z,35.08
2023-05-21T00:14:16.142Z,35.09
2023-05-21T00:15:16.205Z,35.11
2023-05-21T00:16:16.205Z,35.04
2023-05-21T00:17:16.214Z,35.03
2023-05-21T00:18:16.245Z,35.01
2023-05-21T00:19:16.290Z,35.05
2023-05-21T00:20:16.251Z,35.03
2023-05-21T00:21:16.228Z,35.05
2023-05-21T00:22:16.244Z,34.98
2023-05-21T00:23:16.311Z,35.01
2023-05-21T00:24:16.316Z,35.01
2023-05-21T00:25:16.335Z,34.97
2023-05-21T00:26:16.340Z,34.98
2023-05-21T00:27:16.335Z,35.01
2023-05-21T00:28:16.348Z,34.98
2023-05-21T00:29:16.399Z,35.05
2023-05-21T00:30:16.402Z,35.05
2023-05-21T00:31:16.451Z,34.97
2023-05-21T00:32:16.423Z,34.93
2023-05-21T00:33:16.424Z,35.00
2023-05-21T00:34:16.480Z,35.08
2023-05-21T00:35:16.521Z,35.01
2023-05-21T00:36:16.466Z,34.93
2023-05-21T00:37:16.479Z,34.98
2023-05-21T00:38:16.502Z,35.04
2023-05-21T00:39:16.523Z,34.98
2023-05-21T00:40:16.574Z,34.98
2023-05-21T00:41:16.545Z,35.01
2023-05-21T00:42:16.586Z,34.98
2023-05-21T00:43:16.629Z,35.04
2023-05-21T00:44:16.624Z,35.05
2023-05-21T00:45:16.657Z,35.11
2023-05-21T00:46:16.769Z,35.05
2023-05-21T00:47:16.658Z,35.12
2023-05-21T00:48:16.678Z,35.01
2023-05-21T00:49:16.742Z,35.12
2023-05-21T00:50:16.740Z,35.04
2023-05-21T00:51:16.744Z,35.05
2023-05-21T00:52:16.800Z,35.09
2023-05-21T00:53:16.808Z,35.16
2023-05-21T00:54:16.822Z,35.10
2023-05-21T00:55:16.860Z,35.08
2023-05-21T00:56:16.882Z,35.09
2023-05-21T00:57:16.895Z,35.14
2023-05-21T00:58:16.906Z,35.06
2023-05-21T00:59:16.897Z,35.03
2023-05-21T01:00:16.957Z,35.06
2023-05-21T01:01:16.992Z,35.06
2023-05-21T01:02:17.032Z,35.13
2023-05-21T01:03:17.140Z,35.21
2023-05-21T01:04:16.972Z,35.14
2023-05-21T01:05:17.006Z,35.13
2023-05-21T01:06:17.006Z,35.17
2023-05-21T01:07:16.998Z,35.15
2023-05-21T01:08:17.020Z,35.19
2023-05-21T01:09:17.080Z,35.16
2023-05-21T01:10:17.096Z,35.22
2023-05-21T01:11:17.121Z,35.18
2023-05-21T01:12:17.144Z,35.21
2023-05-21T01:13:17.188Z,35.22
2023-05-21T01:14:17.166Z,35.22
2023-05-21T01:15:17.187Z,35.22
2023-05-21T01:16:17.207Z,35.21
2023-05-21T01:17:17.229Z,35.23
2023-05-21T01:18:17.305Z,35.25
2023-05-21T01:19:17.392Z,35.19
2023-05-21T01:20:17.284Z,35.19
2023-05-21T01:21:17.419Z,35.22
2023-05-21T01:22:17.333Z,35.23
2023-05-21T01:23:17.341Z,35.26
2023-05-21T01:24:17.407Z,35.25
2023-05-21T01:25:17.433Z,35.21
2023-05-21T01:26:17.530Z,35.23
2023-05-21T01:27:17.551Z,35.21
2023-05-21T01:28:17.625Z,35.25
2023-05-21T01:29:17.647Z,35.30
2023-05-21T01:30:17.697Z,35.26
2023-05-21T01:31:17.717Z,35.27
2023-05-21T01:32:17.773Z,35.30
2023-05-21T01:33:17.884Z,35.26
2023-05-21T01:34:17.859Z,35.22
2023-05-21T01:35:17.932Z,35.27
2023-05-21T01:36:17.942Z,35.26
2023-05-21T01:37:18.012Z,35.26
2023-05-21T01:38:18.091Z,35.28
2023-05-21T01:39:18.115Z,35.23
2023-05-21T01:40:18.172Z,35.27
2023-05-21T01:41:18.173Z,35.24
2023-05-21T01:42:18.257Z,35.24
2023-05-21T01:43:18.303Z,35.30
2023-05-21T01:44:18.348Z,35.26
2023-05-21T01:45:18.393Z,35.23
2023-05-21T01:46:18.447Z,35.30
2023-05-21T01:47:18.490Z,35.31
2023-05-21T01:48:18.546Z,35.27
2023-05-21T01:49:18.578Z,35.26
2023-05-21T01:50:18.686Z,35.27
2023-05-21T01:51:18.681Z,35.27
2023-05-21T01:52:18.718Z,35.27
2023-05-21T01:53:18.741Z,35.33
2023-05-21T01:54:18.799Z,35.27
2023-05-21T01:55:18.881Z,35.31
2023-05-21T01:56:18.897Z,35.27
2023-05-21T01:57:18.958Z,35.27
2023-05-21T01:58:18.975Z,35.24
2023-05-21T01:59:19.067Z,35.26
2023-05-21T02:00:19.107Z,35.31
2023-05-21T02:01:19.218Z,35.25
2023-05-21T02:02:19.202Z,35.25
2023-05-21T02:03:19.313Z,35.30
2023-05-21T02:04:19.285Z,35.25
2023-05-21T02:05:19.339Z,35.31
2023-05-21T02:06:19.370Z,35.24
2023-05-21T02:07:19.450Z,35.28
2023-05-21T02:08:19.502Z,35.30
2023-05-21T02:09:19.508Z,35.31
2023-05-21T02:10:19.597Z,35.34
2023-05-21T02:11:19.616Z,35.32
2023-05-21T02:12:19.672Z,35.28
2023-05-21T02:13:19.712Z,35.28
2023-05-21T02:14:19.764Z,35.31
2023-05-21T02:15:19.829Z,35.27
2023-05-21T02:16:19.947Z,35.31
2023-05-21T02:17:19.908Z,35.31
2023-05-21T02:18:19.959Z,35.32
2023-05-21T02:19:20.029Z,35.27
2023-05-21T02:20:20.061Z,35.32
2023-05-21T02:21:20.109Z,35.28
2023-05-21T02:22:20.137Z,35.27
2023-05-21T02:23:20.212Z,35.30
2023-05-21T02:24:20.269Z,35.31
2023-05-21T02:25:20.310Z,35.34
2023-05-21T02:26:20.365Z,35.33
2023-05-21T02:27:20.437Z,35.30
2023-05-21T02:28:20.455Z,35.28
2023-05-21T02:29:20.510Z,35.32
2023-05-21T02:30:20.563Z,35.23
2023-05-21T02:31:20.618Z,35.31
2023-05-21T02:32:20.663Z,35.32
2023-05-21T02:33:20.704Z,35.35
2023-05-21T02:34:20.892Z,35.28
2023-05-21T02:35:20.792Z,35.30
2023-05-21T02:36:20.824Z,35.27
2023-05-21T02:37:20.866Z,35.34
2023-05-21T02:38:20.913Z,35.27
2023-05-21T02:39:20.980Z,35.29
2023-05-21T02:40:21.024Z,35.28
2023-05-21T02:41:21.057Z,35.28
2023-05-21T02:42:21.110Z,35.29
2023-05-21T02:43:21.168Z,35.32
2023-05-21T02:44:21.239Z,35.33
2023-05-21T02:45:21.285Z,35.30
2023-05-21T02:46:21.344Z,35.32
2023-05-21T02:47:21.355Z,35.35
2023-05-21T02:48:21.364Z,35.33
2023-05-21T02:49:21.459Z,35.30
2023-05-21T02:50:21.496Z,35.32
2023-05-21T02:51:21.533Z,35.33
2023-05-21T02:52:21.577Z,35.32
2023-05-21T02:53:21.642Z,35.33
2023-05-21T02:54:21.689Z,35.33
2023-05-21T02:55:21.746Z,35.32
2023-05-21T02:56:21.750Z,35.32
2023-05-21T02:57:21.819Z,35.32
2023-05-21T02:58:21.894Z,35.32
2023-05-21T02:59:21.895Z,35.25
2023-05-21T03:00:21.982Z,35.32
2023-05-21T03:01:22.052Z,35.28
2023-05-21T03:02:22.146Z,35.32
2023-05-21T03:03:22.180Z,35.34
2023-05-21T03:04:22.133Z,35.35
2023-05-21T03:05:22.208Z,35.36
2023-05-21T03:06:22.230Z,35.33
2023-05-21T03:07:22.312Z,35.30
2023-05-21T03:08:22.327Z,35.32
2023-05-21T03:09:22.346Z,35.29
2023-05-21T03:10:22.425Z,35.32
2023-05-21T03:11:22.469Z,35.32
2023-05-21T03:12:22.550Z,35.30
2023-05-21T03:13:22.595Z,35.33
2023-05-21T03:14:22.589Z,35.33
2023-05-21T03:15:22.681Z,35.29
2023-05-21T03:16:22.812Z,35.34
2023-05-21T03:17:22.770Z,35.29
2023-05-21T03:18:22.821Z,35.32
2023-05-21T03:19:22.884Z,35.30
2023-05-21T03:20:22.930Z,35.30
2023-05-21T03:21:22.951Z,35.29
2023-05-21T03:22:23.012Z,35.32
2023-05-21T03:23:23.069Z,35.29
2023-05-21T03:24:23.078Z,35.30
2023-05-21T03:25:23.165Z,35.26
2023-05-21T03:26:23.224Z,35.34
2023-05-21T03:27:23.249Z,35.33
2023-05-21T03:28:23.296Z,35.28
2023-05-21T03:29:23.349Z,35.30
2023-05-21T03:30:23.403Z,35.35
2023-05-21T03:31:23.466Z,35.35
2023-05-21T03:32:23.496Z,35.35
2023-05-21T03:33:23.527Z,35.30
2023-05-21T03:34:23.592Z,35.37
2023-05-21T03:35:23.662Z,35.33
2023-05-21T03:36:23.725Z,35.34
2023-05-21T03:37:23.720Z,35.36
2023-05-21T03:38:23.783Z,35.32
2023-05-21T03:39:23.808Z,35.34
2023-05-21T03:40:23.892Z,35.34
2023-05-21T03:41:23.940Z,35.30
2023-05-21T03:42:23.982Z,35.31
2023-05-21T03:43:24.008Z,35.29
2023-05-21T03:44:24.812Z,35.34
2023-05-21T03:45:24.123Z,35.35
2023-05-21T03:46:24.200Z,35.35
2023-05-21T03:47:24.261Z,35.37
2023-05-21T03:48:24.252Z,35.34
2023-05-21T03:49:24.328Z,35.35
2023-05-21T03:50:24.358Z,35.35
2023-05-21T03:51:24.416Z,35.31
2023-05-21T03:52:24.488Z,35.33
2023-05-21T03:53:24.544Z,35.30
2023-05-21T03:54:24.624Z,35.34
2023-05-21T03:55:24.709Z,35.28
2023-05-21T03:56:24.680Z,35.30
2023-05-21T03:57:24.771Z,35.30
2023-05-21T03:58:24.807Z,35.30
2023-05-21T03:59:24.865Z,35.34
2023-05-21T04:00:24.923Z,35.31
2023-05-21T04:01:24.991Z,35.31
2023-05-21T04:02:25.078Z,35.33
2023-05-21T04:03:25.288Z,35.32
2023-05-21T04:04:25.164Z,35.30
2023-05-21T04:05:25.181Z,35.33
2023-05-21T04:06:25.266Z,35.34
2023-05-21T04:07:25.305Z,35.31
2023-05-21T04:08:25.350Z,35.31
2023-05-21T04:09:25.385Z,35.27
2023-05-21T04:10:25.495Z,35.31
2023-05-21T04:11:25.567Z,35.30
2023-05-21T04:12:25.545Z,35.29
2023-05-21T04:13:25.615Z,35.29
2023-05-21T04:14:25.663Z,35.34
2023-05-21T04:15:25.708Z,35.29
2023-05-21T04:16:25.894Z,35.32
2023-05-21T04:17:25.843Z,35.29
2023-05-21T04:18:25.939Z,35.34
2023-05-21T04:19:25.939Z,35.27
2023-05-21T04:20:25.999Z,35.26
2023-05-21T04:21:26.058Z,35.29
2023-05-21T04:22:26.113Z,35.30
2023-05-21T04:23:26.160Z,35.25
2023-05-21T04:24:26.228Z,35.29
2023-05-21T04:25:26.284Z,35.29
2023-05-21T04:26:26.325Z,35.30
2023-05-21T04:27:26.407Z,35.28
2023-05-21T04:28:26.436Z,35.32
2023-05-21T04:29:26.487Z,35.30
2023-05-21T04:30:27.049Z,35.28
2023-05-21T04:31:26.672Z,35.25
2023-05-21T04:32:26.724Z,35.34
2023-05-21T04:33:26.763Z,35.28
2023-05-21T04:34:26.815Z,35.29
2023-05-21T04:35:26.868Z,35.29
2023-05-21T04:36:26.926Z,35.26
2023-05-21T04:37:26.959Z,35.26
2023-05-21T04:38:27.016Z,35.25
2023-05-21T04:39:27.068Z,35.24
2023-05-21T04:40:27.178Z,35.28
2023-05-21T04:41:27.185Z,35.24
2023-05-21T04:42:27.295Z,35.25
2023-05-21T04:43:27.353Z,35.29
2023-05-21T04:44:27.366Z,35.21
2023-05-21T04:45:27.444Z,35.24
2023-05-21T04:46:27.617Z,35.24
2023-05-21T04:47:27.544Z,35.27
2023-05-21T04:48:27.615Z,35.21
2023-05-21T04:49:27.695Z,35.24
2023-05-21T04:50:27.734Z,35.21
2023-05-21T04:51:27.817Z,35.23
2023-05-21T04:52:27.840Z,35.22
2023-05-21T04:53:27.906Z,35.25
2023-05-21T04:54:28.023Z,35.21
2023-05-21T04:55:28.030Z,35.24
2023-05-21T04:56:28.092Z,35.20
2023-05-21T04:57:28.163Z,35.23
2023-05-21T04:58:28.183Z,35.21
2023-05-21T04:59:28.220Z,35.20
2023-05-21T05:00:28.305Z,35.20
2023-05-21T05:01:28.377Z,35.20
2023-05-21T05:02:28.462Z,35.20
2023-05-21T05:03:28.551Z,35.24
2023-05-21T05:04:28.529Z,35.23
2023-05-21T05:05:28.575Z,35.22
2023-05-21T05:06:28.609Z,35.20
2023-05-21T05:07:28.631Z,35.16
2023-05-21T05:08:28.691Z,35.20
2023-05-21T05:09:28.774Z,35.17
2023-05-21T05:10:28.823Z,35.16
2023-05-21T05:11:28.880Z,35.16
2023-05-21T05:12:28.914Z,35.20
2023-05-21T05:13:28.964Z,35.17
2023-05-21T05:14:29.025Z,35.19
2023-05-21T05:15:29.113Z,35.19
2023-05-21T05:16:29.179Z,35.19
2023-05-21T05:17:29.237Z,35.19
2023-05-21T05:18:29.260Z,35.21
2023-05-21T05:19:29.492Z,35.17
2023-05-21T05:20:29.357Z,35.20
2023-05-21T05:21:29.394Z,35.13
2023-05-21T05:22:29.530Z,35.18
2023-05-21T05:23:29.518Z,35.16
2023-05-21T05:24:29.564Z,35.15
2023-05-21T05:25:29.625Z,35.16
2023-05-21T05:26:29.663Z,35.13
2023-05-21T05:27:29.733Z,35.17
2023-05-21T05:28:29.756Z,35.17
2023-05-21T05:29:29.832Z,35.22
2023-05-21T05:30:29.886Z,35.16
2023-05-21T05:31:29.986Z,35.19
2023-05-21T05:32:29.980Z,35.16
2023-05-21T05:33:30.039Z,35.13
2023-05-21T05:34:30.062Z,35.14
2023-05-21T05:35:30.122Z,35.15
2023-05-21T05:36:30.204Z,35.18
2023-05-21T05:37:30.228Z,35.18
2023-05-21T05:38:30.264Z,35.17
2023-05-21T05:39:30.346Z,35.15
2023-05-21T05:40:30.425Z,35.15
2023-05-21T05:41:30.477Z,35.14
2023-05-21T05:42:30.503Z,35.12
2023-05-21T05:43:30.529Z,35.12
2023-05-21T05:44:30.576Z,35.15
2023-05-21T05:45:30.647Z,35.16
2023-05-21T05:46:30.723Z,35.14
2023-05-21T05:47:30.766Z,35.12
2023-05-21T05:48:30.798Z,35.13
2023-05-21T05:49:30.873Z,35.17
2023-05-21T05:50:30.911Z,35.14
2023-05-21T05:51:30.948Z,35.19
2023-05-21T05:52:30.992Z,35.12
2023-05-21T05:53:31.039Z,35.10
2023-05-21T05:54:31.121Z,35.17
2023-05-21T05:55:31.135Z,35.12
2023-05-21T05:56:31.186Z,35.06
2023-05-21T05:57:31.258Z,35.13
2023-05-21T05:58:31.294Z,35.12
2023-05-21T05:59:31.330Z,35.14
2023-05-21T06:00:31.371Z,35.06
2023-05-21T06:01:31.402Z,35.11
2023-05-21T06:02:31.531Z,35.11
2023-05-21T06:03:31.655Z,35.02
2023-05-21T06:04:31.567Z,35.06
2023-05-21T06:05:31.639Z,35.08
2023-05-21T06:06:31.688Z,35.05
2023-05-21T06:07:31.726Z,34.98
2023-05-21T06:08:31.756Z,35.02
2023-05-21T06:09:31.784Z,35.01
2023-05-21T06:10:31.869Z,34.97
2023-05-21T06:11:31.904Z,35.04
2023-05-21T06:12:31.919Z,34.98
2023-05-21T06:13:31.990Z,34.95
2023-05-21T06:14:32.022Z,34.95
2023-05-21T06:15:32.101Z,34.88
2023-05-21T06:16:32.185Z,34.90
2023-05-21T06:17:32.168Z,34.92
2023-05-21T06:18:32.229Z,34.84
2023-05-21T06:19:32.353Z,34.84
2023-05-21T06:20:32.299Z,34.86
2023-05-21T06:21:32.339Z,34.89
2023-05-21T06:22:32.397Z,34.86
2023-05-21T06:23:32.482Z,34.84
2023-05-21T06:24:32.468Z,34.84
2023-05-21T06:25:32.509Z,34.85
2023-05-21T06:26:32.533Z,34.83
2023-05-21T06:27:32.595Z,34.86
2023-05-21T06:28:32.643Z,34.88
2023-05-21T06:29:32.659Z,34.82
2023-05-21T06:30:32.724Z,34.85
2023-05-21T06:31:32.766Z,34.85
2023-05-21T06:32:32.897Z,34.86
2023-05-21T06:33:32.929Z,34.87
2023-05-21T06:34:32.929Z,34.85
2023-05-21T06:35:32.954Z,34.86
2023-05-21T06:36:32.991Z,34.86
2023-05-21T06:37:33.008Z,34.86
2023-05-21T06:38:33.064Z,34.86
2023-05-21T06:39:33.125Z,34.86
2023-05-21T06:40:33.189Z,34.79
2023-05-21T06:41:33.200Z,34.86
2023-05-21T06:42:33.222Z,34.85
2023-05-21T06:43:33.240Z,34.85
2023-05-21T06:44:33.294Z,34.86
2023-05-21T06:45:33.386Z,34.88
2023-05-21T06:46:33.482Z,34.82
2023-05-21T06:47:33.459Z,34.84
2023-05-21T06:48:33.459Z,34.84
2023-05-21T06:49:33.539Z,34.84
2023-05-21T06:50:33.574Z,34.84
2023-05-21T06:51:33.619Z,34.83
2023-05-21T06:52:33.634Z,34.84
2023-05-21T06:53:33.657Z,34.84
2023-05-21T06:54:33.690Z,34.86
2023-05-21T06:55:33.778Z,34.78
2023-05-21T06:56:33.807Z,34.83
2023-05-21T06:57:33.825Z,34.79
2023-05-21T06:58:33.873Z,34.83
2023-05-21T06:59:33.899Z,34.81
2023-05-21T07:00:33.972Z,34.79
2023-05-21T07:01:33.991Z,34.76
2023-05-21T07:02:34.101Z,34.78
2023-05-21T07:03:34.124Z,34.78
2023-05-21T07:04:34.080Z,34.76
2023-05-21T07:05:34.188Z,34.78
2023-05-21T07:06:34.232Z,34.73
2023-05-21T07:07:34.212Z,34.75
2023-05-21T07:08:34.253Z,34.77
2023-05-21T07:09:34.269Z,34.75
2023-05-21T07:10:34.344Z,34.79
2023-05-21T07:11:34.329Z,34.73
2023-05-21T07:12:34.416Z,34.73
2023-05-21T07:13:34.420Z,34.73
2023-05-21T07:14:34.440Z,34.75
2023-05-21T07:15:34.671Z,34.70
2023-05-21T07:16:34.563Z,34.69
2023-05-21T07:17:34.591Z,34.76
2023-05-21T07:18:34.582Z,34.70
2023-05-21T07:19:34.662Z,34.73
2023-05-21T07:20:34.658Z,34.72
2023-05-21T07:21:34.679Z,34.69
2023-05-21T07:22:34.696Z,34.68
2023-05-21T07:23:34.732Z,34.67
2023-05-21T07:24:34.754Z,34.70
2023-05-21T07:25:34.926Z,34.65
2023-05-21T07:26:34.816Z,34.61
2023-05-21T07:27:34.841Z,34.61
2023-05-21T07:28:34.874Z,34.63
2023-05-21T07:29:34.894Z,34.60
2023-05-21T07:30:34.955Z,34.63
2023-05-21T07:31:35.013Z,34.57
2023-05-21T07:32:35.020Z,34.65
2023-05-21T07:33:35.018Z,34.60
2023-05-21T07:34:35.069Z,34.57
2023-05-21T07:35:35.305Z,34.61
2023-05-21T07:36:35.116Z,34.62
2023-05-21T07:37:35.185Z,34.59
2023-05-21T07:38:35.163Z,34.57
2023-05-21T07:39:35.207Z,34.55
2023-05-21T07:40:35.293Z,34.57
2023-05-21T07:41:35.250Z,34.58
2023-05-21T07:42:35.373Z,34.48
2023-05-21T07:43:35.336Z,34.55
2023-05-21T07:44:35.378Z,34.55
2023-05-21T07:45:35.701Z,34.54
2023-05-21T07:46:35.449Z,34.55
2023-05-21T07:47:35.444Z,34.54
2023-05-21T07:48:35.876Z,34.54
2023-05-21T07:49:35.489Z,34.54
2023-05-21T07:50:35.535Z,34.52
2023-05-21T07:51:35.548Z,34.54
2023-05-21T07:52:35.589Z,34.52
2023-05-21T07:53:35.616Z,34.52
2023-05-21T07:54:35.659Z,34.52
2023-05-21T07:55:35.926Z,34.53
2023-05-21T07:56:35.660Z,34.48
2023-05-21T07:57:35.698Z,34.52
2023-05-21T07:58:35.756Z,34.49
2023-05-21T07:59:35.755Z,34.45
2023-05-21T08:00:35.828Z,34.48
2023-05-21T08:01:35.849Z,34.47
2023-05-21T08:02:36.113Z,34.49
2023-05-21T08:03:36.099Z,34.48
2023-05-21T08:04:37.966Z,34.45
2023-05-21T08:05:36.096Z,34.44
2023-05-21T08:06:35.965Z,34.44
2023-05-21T08:07:36.007Z,34.48
2023-05-21T08:08:35.990Z,34.46
2023-05-21T08:09:36.045Z,34.42
2023-05-21T08:10:36.097Z,34.43
2023-05-21T08:11:36.085Z,34.41
2023-05-21T08:12:36.112Z,34.41
2023-05-21T08:13:36.112Z,34.39
2023-05-21T08:14:36.187Z,34.42
2023-05-21T08:15:36.432Z,34.41
2023-05-21T08:16:36.216Z,34.41
2023-05-21T08:17:36.228Z,34.42
2023-05-21T08:18:36.206Z,34.42
2023-05-21T08:19:36.247Z,34.41
2023-05-21T08:20:36.272Z,34.41
2023-05-21T08:21:36.261Z,34.36
2023-05-21T08:22:36.283Z,34.39
2023-05-21T08:23:36.268Z,34.36
2023-05-21T08:24:36.300Z,34.34
2023-05-21T08:25:36.715Z,34.40
2023-05-21T08:26:36.325Z,34.34
2023-05-21T08:27:36.341Z,34.34
2023-05-21T08:28:36.392Z,34.36
2023-05-21T08:29:36.422Z,34.32
2023-05-21T08:30:36.449Z,34.30
2023-05-21T08:31:36.467Z,34.29
2023-05-21T08:32:36.491Z,34.33
2023-05-21T08:33:36.445Z,34.28
2023-05-21T08:34:36.492Z,34.32
2023-05-21T08:35:36.623Z,34.27
2023-05-21T08:36:36.557Z,34.27
2023-05-21T08:37:36.523Z,34.25
2023-05-21T08:38:36.575Z,34.30
2023-05-21T08:39:36.657Z,34.23
2023-05-21T08:40:36.572Z,34.23
2023-05-21T08:41:36.613Z,34.19
2023-05-21T08:42:37.532Z,34.26
2023-05-21T08:43:36.609Z,34.21
2023-05-21T08:44:36.646Z,34.18
2023-05-21T08:45:36.893Z,34.19
2023-05-21T08:46:36.662Z,34.20
2023-05-21T08:47:36.765Z,34.20
2023-05-21T08:48:36.677Z,34.19
2023-05-21T08:49:36.728Z,34.21
2023-05-21T08:50:36.691Z,34.18
2023-05-21T08:51:36.716Z,34.22
2023-05-21T08:52:36.720Z,34.22
2023-05-21T08:53:36.725Z,34.21
2023-05-21T08:54:36.726Z,34.16
2023-05-21T08:55:36.903Z,34.16
2023-05-21T08:56:36.715Z,34.19
2023-05-21T08:57:36.753Z,34.17
2023-05-21T08:58:36.751Z,34.13
2023-05-21T08:59:36.755Z,34.10
2023-05-21T09:00:36.749Z,34.16
2023-05-21T09:01:36.779Z,34.14
2023-05-21T09:02:36.840Z,34.13
2023-05-21T09:03:36.779Z,34.13
2023-05-21T09:04:36.850Z,34.12
2023-05-21T09:05:37.012Z,34.14
2023-05-21T09:06:36.766Z,34.08
2023-05-21T09:07:36.779Z,34.09
2023-05-21T09:08:36.774Z,34.09
2023-05-21T09:09:36.790Z,34.13
2023-05-21T09:10:36.812Z,34.09
2023-05-21T09:11:36.763Z,34.08
2023-05-21T09:12:36.769Z,34.10
2023-05-21T09:13:38.837Z,34.08
2023-05-21T09:14:36.783Z,34.07
2023-05-21T09:15:37.004Z,34.05
2023-05-21T09:16:36.835Z,34.07
2023-05-21T09:17:36.835Z,34.08
2023-05-21T09:18:36.918Z,34.07
2023-05-21T09:19:36.881Z,34.05
2023-05-21T09:20:36.821Z,34.06
2023-05-21T09:21:36.872Z,34.07
2023-05-21T09:22:36.846Z,34.04
2023-05-21T09:23:36.825Z,34.03
2023-05-21T09:24:36.846Z,34.05
2023-05-21T09:25:37.004Z,34.05
2023-05-21T09:26:36.848Z,33.97
2023-05-21T09:27:36.862Z,34.01
2023-05-21T09:28:36.903Z,33.98
2023-05-21T09:29:36.878Z,33.97
2023-05-21T09:30:37.064Z,33.98
2023-05-21T09:31:36.943Z,33.97
2023-05-21T09:32:36.987Z,33.91
2023-05-21T09:33:36.970Z,34.00
2023-05-21T09:34:37.097Z,33.93
2023-05-21T09:35:38.168Z,33.91
2023-05-21T09:36:36.996Z,33.96
2023-05-21T09:37:37.022Z,33.92
2023-05-21T09:38:37.073Z,33.89
2023-05-21T09:39:37.044Z,33.90
2023-05-21T09:40:37.214Z,33.96
2023-05-21T09:41:37.079Z,33.85
2023-05-21T09:42:37.102Z,33.92
2023-05-21T09:43:37.128Z,33.93
2023-05-21T09:44:37.122Z,33.92
2023-05-21T09:45:39.018Z,33.91
2023-05-21T09:46:37.208Z,33.88
2023-05-21T09:47:37.269Z,33.94
2023-05-21T09:48:37.206Z,33.91
2023-05-21T09:49:37.197Z,33.92
2023-05-21T09:50:37.412Z,33.90
2023-05-21T09:51:37.250Z,33.90
2023-05-21T09:52:37.272Z,33.95
2023-05-21T09:53:37.286Z,33.95
2023-05-21T09:54:37.334Z,33.92
2023-05-21T09:55:37.325Z,33.90
2023-05-21T09:56:37.339Z,33.90
2023-05-21T09:57:37.318Z,33.96
2023-05-21T09:58:37.310Z,33.93
2023-05-21T09:59:37.360Z,33.94
2023-05-21T10:00:37.573Z,33.95
2023-05-21T10:01:37.484Z,33.99
2023-05-21T10:02:37.476Z,33.99
2023-05-21T10:03:37.443Z,33.95
2023-05-21T10:04:37.552Z,33.98
2023-05-21T10:05:37.508Z,33.94
2023-05-21T10:06:37.517Z,33.92
2023-05-21T10:07:37.540Z,34.00
2023-05-21T10:08:37.590Z,34.00
2023-05-21T10:09:37.639Z,33.99
2023-05-21T10:10:37.928Z,34.00
2023-05-21T10:11:37.695Z,34.02
2023-05-21T10:12:37.738Z,33.99
2023-05-21T10:13:37.733Z,33.96
2023-05-21T10:14:37.790Z,33.98
2023-05-21T10:15:37.794Z,34.00
2023-05-21T10:16:37.928Z,33.99
2023-05-21T10:17:37.810Z,33.98
2023-05-21T10:18:37.831Z,33.95
2023-05-21T10:19:38.463Z,33.96
2023-05-21T10:20:38.180Z,33.94
2023-05-21T10:21:37.897Z,34.00
2023-05-21T10:22:37.957Z,33.94
2023-05-21T10:23:37.900Z,33.95
2023-05-21T10:24:37.907Z,33.94
2023-05-21T10:25:37.916Z,33.92
2023-05-21T10:26:37.961Z,33.96
2023-05-21T10:27:37.967Z,33.90
2023-05-21T10:28:38.014Z,33.96
2023-05-21T10:29:38.032Z,33.87
2023-05-21T10:30:38.450Z,33.91
2023-05-21T10:31:38.075Z,33.88
2023-05-21T10:32:38.243Z,33.88
2023-05-21T10:33:38.260Z,33.88
2023-05-21T10:34:38.178Z,33.84
2023-05-21T10:35:38.324Z,33.87
2023-05-21T10:36:38.186Z,33.86
2023-05-21T10:37:38.233Z,33.84
2023-05-21T10:38:38.272Z,33.83
2023-05-21T10:39:38.270Z,33.83
2023-05-21T10:40:38.401Z,33.82
2023-05-21T10:41:38.309Z,33.84
2023-05-21T10:42:38.342Z,33.84
2023-05-21T10:43:38.365Z,33.82
2023-05-21T10:44:38.404Z,33.75
2023-05-21T10:45:38.510Z,33.78
2023-05-21T10:46:38.692Z,33.79
2023-05-21T10:47:38.515Z,33.83
2023-05-21T10:48:38.575Z,33.79
2023-05-21T10:49:38.579Z,33.81
2023-05-21T10:50:38.820Z,33.82
2023-05-21T10:51:38.700Z,33.82
2023-05-21T10:52:38.726Z,33.85
2023-05-21T10:53:38.732Z,33.80
2023-05-21T10:54:38.794Z,33.83
2023-05-21T10:55:38.859Z,33.86
2023-05-21T10:56:38.905Z,33.84
2023-05-21T10:57:38.933Z,33.85
2023-05-21T10:58:38.967Z,33.85
2023-05-21T10:59:39.010Z,33.86
2023-05-21T11:00:39.176Z,33.87
2023-05-21T11:01:39.294Z,33.91
2023-05-21T11:02:39.312Z,33.85
2023-05-21T11:03:39.413Z,33.87
2023-05-21T11:04:39.361Z,33.89
2023-05-21T11:05:39.406Z,33.79
2023-05-21T11:06:39.460Z,33.81
2023-05-21T11:07:39.500Z,33.88
2023-05-21T11:08:39.520Z,33.84
2023-05-21T11:09:39.558Z,33.84
2023-05-21T11:10:39.915Z,33.84
2023-05-21T11:11:39.691Z,33.80
2023-05-21T11:12:39.760Z,33.81
2023-05-21T11:13:39.820Z,33.80
2023-05-21T11:14:40.172Z,33.80
2023-05-21T11:15:39.922Z,33.77
2023-05-21T11:16:40.044Z,33.73
2023-05-21T11:17:40.153Z,33.70
2023-05-21T11:18:40.097Z,33.75
2023-05-21T11:19:40.284Z,33.77
2023-05-21T11:20:40.215Z,33.80
2023-05-21T11:21:40.329Z,33.73
2023-05-21T11:22:40.366Z,33.75
2023-05-21T11:23:40.428Z,33.75
2023-05-21T11:24:40.547Z,33.76
2023-05-21T11:25:40.586Z,33.71
2023-05-21T11:26:40.671Z,33.73
2023-05-21T11:27:40.721Z,33.67
2023-05-21T11:28:40.811Z,33.72
2023-05-21T11:29:40.850Z,33.73
2023-05-21T11:30:41.220Z,33.72
2023-05-21T11:31:41.094Z,33.71
2023-05-21T11:32:41.172Z,33.69
2023-05-21T11:33:41.108Z,33.75
2023-05-21T11:34:41.187Z,33.69
2023-05-21T11:35:41.244Z,33.73
2023-05-21T11:36:41.293Z,33.73
2023-05-21T11:37:41.351Z,33.72
2023-05-21T11:38:41.402Z,33.71
2023-05-21T11:39:41.501Z,33.69
2023-05-21T11:40:41.546Z,33.69
2023-05-21T11:41:41.619Z,33.71
2023-05-21T11:42:41.694Z,33.73
2023-05-21T11:43:41.750Z,33.72
2023-05-21T11:44:41.840Z,33.75
2023-05-21T11:45:41.894Z,33.69
2023-05-21T11:46:42.031Z,33.72
2023-05-21T11:47:42.057Z,33.75
2023-05-21T11:48:42.124Z,33.75
2023-05-21T11:49:42.143Z,33.76
2023-05-21T11:50:42.208Z,33.76
2023-05-21T11:51:42.295Z,33.75
2023-05-21T11:52:44.070Z,33.69
2023-05-21T11:53:44.098Z,33.74
2023-05-21T11:54:42.521Z,33.69
2023-05-21T11:55:42.580Z,33.69
2023-05-21T11:56:42.637Z,33.71
2023-05-21T11:57:42.688Z,33.70
2023-05-21T11:58:42.758Z,33.68
2023-05-21T11:59:42.797Z,33.69
2023-05-21T12:00:42.887Z,33.72
2023-05-21T12:01:42.950Z,33.76
2023-05-21T12:02:43.019Z,33.71
2023-05-21T12:03:43.227Z,33.72
2023-05-21T12:04:43.140Z,33.74
2023-05-21T12:05:43.252Z,33.69
2023-05-21T12:06:43.305Z,33.72
2023-05-21T12:07:43.329Z,33.72
2023-05-21T12:08:43.406Z,33.75
2023-05-21T12:09:43.488Z,33.71
2023-05-21T12:10:46.037Z,33.68
2023-05-21T12:11:43.780Z,33.71
2023-05-21T12:12:54.770Z,33.72
2023-05-21T12:13:44.882Z,33.74
2023-05-21T12:14:43.868Z,33.72
2023-05-21T12:15:43.844Z,33.71
2023-05-21T12:16:43.921Z,33.72
2023-05-21T12:17:43.911Z,33.72
2023-05-21T12:18:43.904Z,33.71
2023-05-21T12:19:43.890Z,33.68
2023-05-21T12:20:43.924Z,33.70
2023-05-21T12:21:43.922Z,33.71
2023-05-21T12:22:43.942Z,33.70
2023-05-21T12:23:43.931Z,33.71
2023-05-21T12:24:43.982Z,33.64
2023-05-21T12:25:44.019Z,33.73
2023-05-21T12:26:44.145Z,33.67
2023-05-21T12:27:44.137Z,33.66
2023-05-21T12:28:44.194Z,33.66
2023-05-21T12:29:44.307Z,33.67
2023-05-21T12:30:44.364Z,33.67
2023-05-21T12:31:44.442Z,33.72
2023-05-21T12:32:44.546Z,33.66
2023-05-21T12:33:44.529Z,33.66
2023-05-21T12:34:44.637Z,33.69
2023-05-21T12:35:44.746Z,33.67
2023-05-21T12:36:44.729Z,33.64
2023-05-21T12:37:44.776Z,33.65
2023-05-21T12:38:44.853Z,33.70
2023-05-21T12:39:44.915Z,33.59
2023-05-21T12:40:44.954Z,33.65
2023-05-21T12:41:45.030Z,33.59
2023-05-21T12:42:45.117Z,33.64
2023-05-21T12:43:45.143Z,33.60
2023-05-21T12:44:45.222Z,33.66
2023-05-21T12:45:45.297Z,33.60
2023-05-21T12:46:45.342Z,33.63
2023-05-21T12:47:45.411Z,33.67
2023-05-21T12:48:45.458Z,33.60
2023-05-21T12:49:45.501Z,33.59
2023-05-21T12:50:45.542Z,33.63
2023-05-21T12:51:45.630Z,33.62
2023-05-21T12:52:45.666Z,33.66